createdAt,value
2023-04-27T00:02:21.874Z,3.53
2023-04-27T00:05:24.819Z,3.41
2023-04-27T00:08:27.594Z,3.30
2023-04-27T00:11:30.240Z,3.21
2023-04-27T00:14:32.936Z,3.14
2023-04-27T00:17:36.062Z,3.07
2023-04-27T00:20:38.942Z,2.99
2023-04-27T00:23:41.791Z,2.93
2023-04-27T00:26:44.354Z,2.89
2023-04-27T00:29:48.430Z,2.82
2023-04-27T00:32:51.249Z,2.76
2023-04-27T00:35:53.954Z,2.68
2023-04-27T00:38:59.685Z,2.63
2023-04-27T00:42:02.353Z,2.50
2023-04-27T00:45:06.210Z,2.47
2023-04-27T00:48:10.425Z,2.42
2023-04-27T00:51:13.368Z,2.37
2023-04-27T00:54:18.178Z,2.30
2023-04-27T00:57:23.927Z,2.21
2023-04-27T01:00:26.624Z,2.05
2023-04-27T01:03:30.867Z,1.98
2023-04-27T01:06:33.819Z,1.93
2023-04-27T01:09:36.809Z,1.90
2023-04-27T01:12:39.456Z,1.87
2023-04-27T01:15:42.206Z,1.83
2023-04-27T01:18:47.879Z,1.84
2023-04-27T01:21:50.655Z,1.85
2023-04-27T01:24:53.877Z,1.82
2023-04-27T01:27:56.605Z,1.81
2023-04-27T01:31:02.383Z,1.76
2023-04-27T01:34:04.982Z,1.76
2023-04-27T01:37:07.653Z,1.70
2023-04-27T01:40:10.642Z,1.69
2023-04-27T01:43:13.452Z,1.63
2023-04-27T01:46:16.396Z,1.63
2023-04-27T01:49:22.276Z,1.53
2023-04-27T01:52:25.279Z,1.44
2023-04-27T01:55:28.433Z,1.32
2023-04-27T01:58:31.218Z,1.25
2023-04-27T02:01:34.693Z,1.25
2023-04-27T02:04:38.137Z,1.20
2023-04-27T02:07:41.101Z,1.19
2023-04-27T02:10:43.725Z,1.16
2023-04-27T02:13:46.808Z,1.06
2023-04-27T02:16:49.579Z,0.98
2023-04-27T02:19:52.429Z,0.94
2023-04-27T02:22:55.068Z,0.88
2023-04-27T02:25:57.745Z,0.81
2023-04-27T02:29:00.791Z,0.75
2023-04-27T02:32:03.924Z,0.66
2023-04-27T02:35:07.058Z,0.61
2023-04-27T02:38:10.552Z,0.58
2023-04-27T02:41:13.214Z,0.49
2023-04-27T02:44:16.188Z,0.44
2023-04-27T02:47:20.067Z,0.38
2023-04-27T02:50:22.688Z,0.28
2023-04-27T02:53:25.349Z,0.29
2023-04-27T02:56:28.072Z,0.24
2023-04-27T02:59:30.926Z,0.19
2023-04-27T03:02:33.881Z,0.16
2023-04-27T03:05:37.469Z,0.14
2023-04-27T03:08:51.039Z,0.11
2023-04-27T03:11:53.733Z,0.03
2023-04-27T03:14:56.644Z,-0.02
2023-04-27T03:18:00.254Z,-0.06
2023-04-27T03:21:11.113Z,-0.09
2023-04-27T03:24:13.986Z,-0.12
2023-04-27T03:27:19.562Z,-0.16
2023-04-27T03:30:22.195Z,-0.25
2023-04-27T03:33:27.192Z,-0.24
2023-04-27T03:36:29.867Z,-0.25
2023-04-27T03:39:32.510Z,-0.30
2023-04-27T03:42:35.194Z,-0.27
2023-04-27T03:45:38.189Z,-0.28
2023-04-27T03:48:41.107Z,-0.27
2023-04-27T03:51:44.199Z,-0.27
2023-04-27T03:54:46.863Z,-0.31
2023-04-27T03:57:49.661Z,-0.32
2023-04-27T04:00:52.402Z,-0.30
2023-04-27T04:03:55.244Z,-0.33
2023-04-27T04:06:58.027Z,-0.29
2023-04-27T04:10:00.938Z,-0.27
2023-04-27T04:13:03.618Z,-0.20
2023-04-27T04:16:08.072Z,-0.16
2023-04-27T04:19:11.298Z,-0.09
2023-04-27T04:22:14.216Z,-0.02
2023-04-27T04:25:16.937Z,0.09
2023-04-27T04:28:19.564Z,0.17
2023-04-27T04:31:22.303Z,0.27
2023-04-27T04:34:25.088Z,0.41
2023-04-27T04:37:28.316Z,0.52
2023-04-27T04:40:31.252Z,0.62
2023-04-27T04:43:34.104Z,0.77
2023-04-27T04:46:37.558Z,0.90
2023-04-27T04:49:40.481Z,1.02
2023-04-27T04:52:43.342Z,1.20
2023-04-27T04:55:46.024Z,1.35
2023-04-27T04:58:51.718Z,1.55
2023-04-27T05:01:56.027Z,1.75
2023-04-27T05:05:00.224Z,1.99
2023-04-27T05:08:03.104Z,2.30
2023-04-27T05:11:05.906Z,2.61
2023-04-27T05:14:08.543Z,2.93
2023-04-27T05:17:11.244Z,3.16
2023-04-27T05:20:14.165Z,3.47
2023-04-27T05:23:17.292Z,3.76
2023-04-27T05:26:19.935Z,3.99
2023-04-27T05:29:23.032Z,4.30
2023-04-27T05:32:26.252Z,4.53
2023-04-27T05:35:32.099Z,4.78
2023-04-27T05:38:36.309Z,5.04
2023-04-27T05:41:40.597Z,5.21
2023-04-27T05:44:44.009Z,5.39
2023-04-27T05:47:46.877Z,5.53
2023-04-27T05:51:03.254Z,5.76
2023-04-27T05:54:05.948Z,5.99
2023-04-27T05:57:08.668Z,6.11
2023-04-27T06:00:12.895Z,6.21
2023-04-27T06:03:15.724Z,6.32
2023-04-27T06:06:18.648Z,6.59
2023-04-27T06:09:21.833Z,6.71
2023-04-27T06:12:25.268Z,6.84
2023-04-27T06:15:27.962Z,7.00
2023-04-27T06:18:31.836Z,7.20
2023-04-27T06:21:34.834Z,7.37
2023-04-27T06:24:38.928Z,7.50
2023-04-27T06:27:41.746Z,7.65
2023-04-27T06:30:44.502Z,7.85
2023-04-27T06:33:47.241Z,8.02
2023-04-27T06:36:49.906Z,8.10
2023-04-27T06:39:52.692Z,8.28
2023-04-27T06:42:55.436Z,8.44
2023-04-27T06:45:58.242Z,8.55
2023-04-27T06:49:01.788Z,8.74
2023-04-27T06:52:05.957Z,8.90
2023-04-27T06:55:09.016Z,9.21
2023-04-27T06:58:11.898Z,9.37
2023-04-27T07:01:14.621Z,9.59
2023-04-27T07:04:20.716Z,9.70
2023-04-27T07:07:23.719Z,9.78
2023-04-27T07:10:26.470Z,9.99
2023-04-27T07:13:30.284Z,9.93
2023-04-27T07:16:33.432Z,10.02
2023-04-27T07:19:37.322Z,10.12
2023-04-27T07:22:40.123Z,10.21
2023-04-27T07:25:43.677Z,10.47
2023-04-27T07:28:47.528Z,10.55
2023-04-27T07:31:52.184Z,10.69
2023-04-27T07:34:56.180Z,10.61
2023-04-27T07:38:02.999Z,10.56
2023-04-27T07:41:06.338Z,10.84
2023-04-27T07:44:12.556Z,10.97
2023-04-27T07:47:15.295Z,11.15
2023-04-27T07:50:22.366Z,11.04
2023-04-27T07:53:25.056Z,11.44
2023-04-27T07:56:28.309Z,11.61
2023-04-27T07:59:31.722Z,11.68
2023-04-27T08:02:34.973Z,12.11
2023-04-27T08:05:38.411Z,12.38
2023-04-27T08:08:41.645Z,12.31
2023-04-27T08:11:44.595Z,12.24
2023-04-27T08:14:50.093Z,12.33
2023-04-27T08:17:52.861Z,12.66
2023-04-27T08:20:55.996Z,12.83
2023-04-27T08:23:58.786Z,12.63
2023-04-27T08:27:07.076Z,12.90
2023-04-27T08:30:10.366Z,12.70
2023-04-27T08:33:13.545Z,13.29
2023-04-27T08:36:16.479Z,13.64
2023-04-27T08:39:20.103Z,13.59
2023-04-27T08:42:22.925Z,13.56
2023-04-27T08:45:26.304Z,13.92
2023-04-27T08:48:32.140Z,13.43
2023-04-27T08:51:35.606Z,14.04
2023-04-27T08:54:38.320Z,14.14
2023-04-27T08:57:53.949Z,14.32
2023-04-27T09:00:56.676Z,14.41
2023-04-27T09:04:02.080Z,14.78
2023-04-27T09:07:12.914Z,15.06
2023-04-27T09:10:16.505Z,14.88
2023-04-27T09:13:22.533Z,15.33
2023-04-27T09:16:28.451Z,15.49
2023-04-27T09:19:34.615Z,15.52
2023-04-27T09:22:48.694Z,15.19
2023-04-27T09:25:55.232Z,14.75
2023-04-27T09:28:58.008Z,15.53
2023-04-27T09:32:16.799Z,15.46
2023-04-27T09:35:30.059Z,15.93
2023-04-27T09:38:33.373Z,16.22
2023-04-27T09:41:36.773Z,16.96
2023-04-27T09:44:39.453Z,17.30
2023-04-27T09:47:42.418Z,16.37
2023-04-27T09:50:50.081Z,16.26
2023-04-27T09:53:54.744Z,16.70
2023-04-27T09:57:12.815Z,16.48
2023-04-27T10:00:46.561Z,16.66
2023-04-27T10:04:14.430Z,15.64
2023-04-27T10:07:20.223Z,14.65
2023-04-27T10:10:23.043Z,15.50
2023-04-27T10:13:31.913Z,15.25
2023-04-27T10:17:03.754Z,16.64
2023-04-27T10:20:07.745Z,16.28
2023-04-27T10:23:10.743Z,17.77
2023-04-27T10:26:13.381Z,18.19
2023-04-27T10:29:18.300Z,17.29
2023-04-27T10:32:26.462Z,18.02
2023-04-27T10:35:40.687Z,17.98
2023-04-27T10:38:43.499Z,16.53
2023-04-27T10:42:04.892Z,16.09
2023-04-27T10:45:08.413Z,15.85
2023-04-27T10:48:15.887Z,17.10
2023-04-27T10:51:18.704Z,17.45
2023-04-27T10:54:28.653Z,18.48
2023-04-27T10:57:34.642Z,18.80
2023-04-27T11:00:44.167Z,19.61
2023-04-27T11:03:59.109Z,20.85
2023-04-27T11:07:04.655Z,19.81
2023-04-27T11:10:08.680Z,18.66
2023-04-27T11:13:13.987Z,17.87
2023-04-27T11:16:17.134Z,18.61
2023-04-27T11:19:19.815Z,19.43
2023-04-27T11:22:22.436Z,19.60
2023-04-27T11:25:29.285Z,19.03
2023-04-27T11:28:32.312Z,17.87
2023-04-27T11:31:49.482Z,18.40
2023-04-27T11:34:54.398Z,18.41
2023-04-27T11:37:59.951Z,18.40
2023-04-27T11:41:06.841Z,19.92
2023-04-27T11:44:10.734Z,20.70
2023-04-27T11:47:19.330Z,20.44
2023-04-27T11:50:25.037Z,19.09
2023-04-27T11:53:32.930Z,20.03
2023-04-27T11:56:42.803Z,20.42
2023-04-27T11:59:45.759Z,19.86
2023-04-27T12:02:48.668Z,19.58
2023-04-27T12:05:54.590Z,19.16
2023-04-27T12:08:58.122Z,17.85
2023-04-27T12:12:01.022Z,17.42
2023-04-27T12:15:03.974Z,18.63
2023-04-27T12:18:07.143Z,19.21
2023-04-27T12:21:13.229Z,20.64
2023-04-27T12:24:16.461Z,21.53
2023-04-27T12:27:22.266Z,22.53
2023-04-27T12:30:25.042Z,22.23
2023-04-27T12:33:27.726Z,22.54
2023-04-27T12:36:30.397Z,22.00
2023-04-27T12:39:36.715Z,23.28
2023-04-27T12:42:42.873Z,23.89
2023-04-27T12:45:48.540Z,22.04
2023-04-27T12:48:54.174Z,23.03
2023-04-27T12:51:58.232Z,23.87
2023-04-27T12:55:02.304Z,23.97
2023-04-27T12:58:08.100Z,23.13
2023-04-27T13:01:15.242Z,23.67
2023-04-27T13:04:20.848Z,23.75
2023-04-27T13:07:24.203Z,23.49
2023-04-27T13:10:36.819Z,24.15
2023-04-27T13:13:42.473Z,23.92
2023-04-27T13:17:02.309Z,23.87
2023-04-27T13:20:07.495Z,23.94
2023-04-27T13:23:10.601Z,24.08
2023-04-27T13:26:13.807Z,24.33
2023-04-27T13:29:18.105Z,24.63
2023-04-27T13:32:21.191Z,23.78
2023-04-27T13:35:24.990Z,23.90
2023-04-27T13:38:27.830Z,21.77
2023-04-27T13:41:31.789Z,23.54
2023-04-27T13:44:34.592Z,23.24
2023-04-27T13:47:37.479Z,23.82
2023-04-27T13:50:40.130Z,24.63
2023-04-27T13:53:42.798Z,23.30
2023-04-27T13:56:45.860Z,22.17
2023-04-27T13:59:48.809Z,21.16
2023-04-27T14:02:51.667Z,20.76
2023-04-27T14:05:56.313Z,21.31
2023-04-27T14:08:58.997Z,22.20
2023-04-27T14:12:01.753Z,23.09
2023-04-27T14:15:05.296Z,23.87
2023-04-27T14:18:09.083Z,22.95
2023-04-27T14:21:11.906Z,21.69
2023-04-27T14:24:15.039Z,22.27
2023-04-27T14:27:18.015Z,21.34
2023-04-27T14:30:34.036Z,21.86
2023-04-27T14:33:36.802Z,21.44
2023-04-27T14:36:39.506Z,21.74
2023-04-27T14:39:45.009Z,22.49
2023-04-27T14:42:47.998Z,21.50
2023-04-27T14:45:55.511Z,23.34
2023-04-27T14:49:02.462Z,22.68
2023-04-27T14:52:06.773Z,22.86
2023-04-27T14:55:10.025Z,23.56
2023-04-27T14:58:12.783Z,21.49
2023-04-27T15:01:15.765Z,20.32
2023-04-27T15:04:18.933Z,22.16
2023-04-27T15:07:21.732Z,22.97
2023-04-27T15:10:24.584Z,23.55
2023-04-27T15:13:27.934Z,24.13
2023-04-27T15:16:30.813Z,24.19
2023-04-27T15:19:34.039Z,24.34
2023-04-27T15:22:37.226Z,24.80
2023-04-27T15:25:39.943Z,22.88
2023-04-27T15:28:42.840Z,21.41
2023-04-27T15:31:47.507Z,21.02
2023-04-27T15:34:50.293Z,22.77
2023-04-27T15:37:53.028Z,22.94
2023-04-27T15:40:55.891Z,22.93
2023-04-27T15:43:59.027Z,22.57
2023-04-27T15:47:02.280Z,22.84
2023-04-27T15:50:06.272Z,22.60
2023-04-27T15:53:09.100Z,22.74
2023-04-27T15:56:12.032Z,23.09
2023-04-27T15:59:14.994Z,23.44
2023-04-27T16:02:18.802Z,23.07
2023-04-27T16:05:21.718Z,21.83
2023-04-27T16:08:27.010Z,20.70
2023-04-27T16:11:32.744Z,20.00
2023-04-27T16:14:41.848Z,19.40
2023-04-27T16:17:44.742Z,18.83
2023-04-27T16:20:47.469Z,18.15
2023-04-27T16:23:50.290Z,17.71
2023-04-27T16:26:52.973Z,17.44
2023-04-27T16:29:56.578Z,17.16
2023-04-27T16:32:59.314Z,16.87
2023-04-27T16:36:02.005Z,16.58
2023-04-27T16:39:05.281Z,16.20
2023-04-27T16:42:08.341Z,16.12
2023-04-27T16:45:11.615Z,16.06
2023-04-27T16:48:14.346Z,15.62
2023-04-27T16:51:17.026Z,15.53
2023-04-27T16:54:21.154Z,15.42
2023-04-27T16:57:23.922Z,15.11
2023-04-27T17:00:27.661Z,15.14
2023-04-27T17:03:30.836Z,14.95
2023-04-27T17:06:34.968Z,14.86
2023-04-27T17:09:38.183Z,14.80
2023-04-27T17:12:41.062Z,14.79
2023-04-27T17:15:44.668Z,14.58
2023-04-27T17:18:48.167Z,14.44
2023-04-27T17:21:51.132Z,14.36
2023-04-27T17:24:54.475Z,14.07
2023-04-27T17:27:58.068Z,14.05
2023-04-27T17:31:02.282Z,13.94
2023-04-27T17:34:05.394Z,13.83
2023-04-27T17:37:08.680Z,13.55
2023-04-27T17:40:12.368Z,13.12
2023-04-27T17:43:15.361Z,12.82
2023-04-27T17:46:18.661Z,12.50
2023-04-27T17:49:22.750Z,12.20
2023-04-27T17:52:25.585Z,11.85
2023-04-27T17:55:33.974Z,11.51
2023-04-27T17:58:36.850Z,11.26
2023-04-27T18:01:40.031Z,11.03
2023-04-27T18:04:43.482Z,10.74
2023-04-27T18:07:46.795Z,10.63
2023-04-27T18:10:49.806Z,10.38
2023-04-27T18:13:54.639Z,10.08
2023-04-27T18:17:00.665Z,9.72
2023-04-27T18:20:09.352Z,9.53
2023-04-27T18:23:13.058Z,9.45
2023-04-27T18:26:17.207Z,9.34
2023-04-27T18:29:20.147Z,9.08
2023-04-27T18:32:23.386Z,8.91
2023-04-27T18:35:26.212Z,8.79
2023-04-27T18:38:29.491Z,8.60
2023-04-27T18:41:33.135Z,8.42
2023-04-27T18:44:36.718Z,8.33
2023-04-27T18:47:40.050Z,8.09
2023-04-27T18:50:42.999Z,7.94
2023-04-27T18:53:45.817Z,7.78
2023-04-27T18:56:53.047Z,7.71
2023-04-27T18:59:56.319Z,7.62
2023-04-27T19:02:59.482Z,7.47
2023-04-27T19:06:02.972Z,7.32
2023-04-27T19:09:05.761Z,7.28
2023-04-27T19:12:09.240Z,7.17
2023-04-27T19:15:14.670Z,7.02
2023-04-27T19:18:17.480Z,6.91
2023-04-27T19:21:20.327Z,6.84
2023-04-27T19:24:24.981Z,6.72
2023-04-27T19:27:28.260Z,6.62
2023-04-27T19:30:31.314Z,6.53
2023-04-27T19:33:34.169Z,6.49
2023-04-27T19:36:36.949Z,6.30
2023-04-27T19:39:39.864Z,6.20
2023-04-27T19:42:42.909Z,6.07
2023-04-27T19:45:45.956Z,5.94
2023-04-27T19:48:48.935Z,5.87
2023-04-27T19:51:51.689Z,5.83
2023-04-27T19:54:54.822Z,5.69
2023-04-27T19:57:57.759Z,5.58
2023-04-27T20:01:00.540Z,5.41
2023-04-27T20:04:03.461Z,5.34
2023-04-27T20:07:06.665Z,5.24
2023-04-27T20:10:09.395Z,5.09
2023-04-27T20:13:12.308Z,4.96
2023-04-27T20:16:15.360Z,4.90
2023-04-27T20:19:19.457Z,4.87
2023-04-27T20:22:22.931Z,4.84
2023-04-27T20:25:26.167Z,4.79
2023-04-27T20:28:30.491Z,4.70
2023-04-27T20:31:33.551Z,4.69
2023-04-27T20:34:36.334Z,4.64
2023-04-27T20:37:40.224Z,4.49
2023-04-27T20:40:42.970Z,4.38
2023-04-27T20:43:46.154Z,4.25
2023-04-27T20:46:49.201Z,4.28
2023-04-27T20:49:51.929Z,4.15
2023-04-27T20:52:54.604Z,4.11
2023-04-27T20:55:57.371Z,4.10
2023-04-27T20:59:00.210Z,4.09
2023-04-27T21:02:03.218Z,4.09
2023-04-27T21:05:06.332Z,4.06
2023-04-27T21:08:09.056Z,3.93
2023-04-27T21:11:12.250Z,3.78
2023-04-27T21:14:15.028Z,3.75
2023-04-27T21:17:18.042Z,3.74
2023-04-27T21:20:21.055Z,3.74
2023-04-27T21:23:23.839Z,3.65
2023-04-27T21:26:27.026Z,3.66
2023-04-27T21:29:34.932Z,3.62
2023-04-27T21:32:40.958Z,3.60
2023-04-27T21:35:43.769Z,3.59
2023-04-27T21:38:47.336Z,3.52
2023-04-27T21:41:51.508Z,3.42
2023-04-27T21:44:55.482Z,3.35
2023-04-27T21:48:01.301Z,3.31
2023-04-27T21:51:04.154Z,3.31
2023-04-27T21:54:07.244Z,3.24
2023-04-27T21:57:12.724Z,3.23
2023-04-27T22:00:18.345Z,3.05
2023-04-27T22:03:22.001Z,3.02
2023-04-27T22:06:25.783Z,3.02
2023-04-27T22:09:28.866Z,2.98
2023-04-27T22:12:31.652Z,2.91
2023-04-27T22:15:34.590Z,2.85
2023-04-27T22:18:37.429Z,2.81
2023-04-27T22:21:43.056Z,2.73
2023-04-27T22:24:46.094Z,2.74
2023-04-27T22:27:52.855Z,2.65
2023-04-27T22:30:56.015Z,2.45
2023-04-27T22:33:59.027Z,2.48
2023-04-27T22:37:02.570Z,2.47
2023-04-27T22:40:06.056Z,2.38
2023-04-27T22:43:08.685Z,2.35
2023-04-27T22:46:11.418Z,2.28
2023-04-27T22:49:15.358Z,2.25
2023-04-27T22:52:18.342Z,2.19
2023-04-27T22:55:21.381Z,2.17
2023-04-27T22:58:24.101Z,2.14
2023-04-27T23:01:26.781Z,2.12
2023-04-27T23:04:33.806Z,2.10
2023-04-27T23:07:37.352Z,2.09
2023-04-27T23:10:41.194Z,2.09
2023-04-27T23:13:44.712Z,2.04
2023-04-27T23:16:50.751Z,1.98
2023-04-27T23:19:53.401Z,1.94
2023-04-27T23:22:59.206Z,1.92
2023-04-27T23:26:02.617Z,1.87
2023-04-27T23:29:05.658Z,1.87
2023-04-27T23:32:08.850Z,1.86
2023-04-27T23:35:11.711Z,1.85
2023-04-27T23:38:14.509Z,1.83
2023-04-27T23:41:17.418Z,1.79
2023-04-27T23:44:20.360Z,1.85
2023-04-27T23:47:23.275Z,1.77
2023-04-27T23:50:26.167Z,1.76
2023-04-27T23:53:29.154Z,1.79
2023-04-27T23:56:32.051Z,1.75
2023-04-27T23:59:35.686Z,1.78
